Time;durP1;ratioP1;P1;durP2;ratioP2;P2;SDS_P1;SDS_P2;PMS_P1;PMS_P2;Temp;Humidity;BMP_temperature;BMP_pressure;BME280_temperature;BME280_humidity;BME280_pressure;Samples;Min_cycle;Max_cycle;Signal;HPM_P1;HPM_P2
2022/10/03 00:02:06;;;;;;;8.48;3.85;;;;;;;13.97;56.45;102431.97;5051644;28;20163;-74
2022/10/03 00:04:57;;;;;;;7.72;3.78;;;;;;;13.93;56.32;102427.72;5051330;28;20048;-73
2022/10/03 00:07:50;;;;;;;12.82;5.05;;;;;;;13.92;56.26;102428.66;5051604;28;20526;-74
2022/10/03 00:10:45;;;;;;;5.88;3.67;;;;;;;13.90;56.63;102436.88;5051542;28;20044;-73
2022/10/03 00:13:27;;;;;;;6.28;3.67;;;;;;;13.89;56.42;102435.13;5051376;28;20095;-73
2022/10/03 00:16:08;;;;;;;6.32;3.10;;;;;;;13.89;56.49;102439.66;5051579;28;20045;-73
2022/10/03 00:18:40;;;;;;;5.97;3.72;;;;;;;13.88;56.71;102441.50;5051406;28;20052;-73
2022/10/03 00:21:42;;;;;;;7.20;3.53;;;;;;;13.87;56.63;102442.44;5048908;28;20166;-73
2022/10/03 00:24:29;;;;;;;7.53;3.35;;;;;;;13.88;56.36;102437.91;5051533;28;20103;-73
2022/10/03 00:27:13;;;;;;;6.07;3.75;;;;;;;13.88;56.52;102443.31;5051143;28;20057;-74
2022/10/03 00:29:53;;;;;;;8.82;4.10;;;;;;;13.88;56.52;102451.41;5051198;28;20036;-74
2022/10/03 00:32:47;;;;;;;10.57;3.85;;;;;;;13.89;56.28;102447.75;5050922;28;20049;-73
2022/10/03 00:36:01;;;;;;;10.40;4.20;;;;;;;13.87;56.40;102447.84;5051361;28;20067;-74
2022/10/03 00:38:46;;;;;;;9.48;3.95;;;;;;;13.87;56.08;102452.38;5039852;28;20096;-74
2022/10/03 00:41:39;;;;;;;10.38;4.85;;;;;;;13.84;56.25;102455.28;5031202;28;20138;-73
2022/10/03 00:44:19;;;;;;;12.40;4.18;;;;;;;13.82;56.27;102452.66;5031313;28;20511;-73
2022/10/03 00:46:52;;;;;;;8.73;3.90;;;;;;;13.81;56.26;102452.75;5045875;28;20040;-73
2022/10/03 00:50:03;;;;;;;8.60;4.05;;;;;;;13.78;56.41;102461.91;5050917;28;20576;-74
2022/10/03 00:52:41;;;;;;;9.82;3.50;;;;;;;13.78;56.14;102469.13;5040279;28;20384;-74
2022/10/03 00:55:40;;;;;;;8.88;3.50;;;;;;;13.76;56.46;102469.22;5050948;28;20052;-74
2022/10/03 00:58:38;;;;;;;6.55;3.65;;;;;;;13.74;56.32;102468.44;5051054;28;20037;-74
2022/10/03 01:01:27;;;;;;;7.25;3.28;;;;;;;13.74;56.38;102478.38;5051015;28;20041;-74
2022/10/03 01:04:09;;;;;;;9.27;3.53;;;;;;;13.73;56.16;102482.03;5047439;28;20045;-74
2022/10/03 01:06:56;;;;;;;8.60;3.85;;;;;;;13.70;56.36;102466.00;5050727;28;20049;-73
2022/10/03 01:09:55;;;;;;;5.65;3.05;;;;;;;13.68;56.41;102466.09;5050839;28;20045;-72
2022/10/03 01:12:46;;;;;;;6.45;2.83;;;;;;;13.67;56.11;102469.75;5049972;28;20037;-74
2022/10/03 01:15:36;;;;;;;5.30;3.05;;;;;;;13.65;56.36;102477.94;5054382;28;20049;-73
2022/10/03 01:18:12;;;;;;;8.07;3.45;;;;;;;13.65;56.36;102477.94;5053523;28;20037;-73
2022/10/03 01:20:53;;;;;;;5.65;2.95;;;;;;;13.61;56.08;102476.38;5053508;28;20049;-72
2022/10/03 01:23:28;;;;;;;4.35;2.75;;;;;;;13.56;56.12;102480.31;5054361;28;20446;-72
2022/10/03 01:26:13;;;;;;;5.13;3.05;;;;;;;13.48;56.46;102482.59;5054561;28;20037;-73
2022/10/03 01:31:40;;;;;;;5.47;2.78;;;;;;;13.44;56.46;102491.81;5054243;28;20044;-73
2022/10/03 01:34:22;;;;;;;5.15;3.15;;;;;;;13.43;56.47;102490.06;5054723;28;20037;-73
2022/10/03 01:36:51;;;;;;;5.85;2.90;;;;;;;13.44;56.41;102502.59;5052579;28;20049;-73
2022/10/03 01:39:33;;;;;;;5.63;2.55;;;;;;;13.41;56.25;102505.47;5054644;28;20079;-72
2022/10/03 01:42:10;;;;;;;5.30;2.28;;;;;;;13.37;56.19;102502.06;5054131;28;20041;-74
2022/10/03 01:44:42;;;;;;;2.83;2.08;;;;;;;13.31;56.24;102503.25;5052794;28;20060;-74
2022/10/03 01:47:35;;;;;;;5.78;2.20;;;;;;;13.27;56.21;102495.44;5041089;28;20094;-73
2022/10/03 01:50:22;;;;;;;3.60;2.20;;;;;;;13.24;56.14;102495.59;5054031;28;20541;-73
2022/10/03 01:53:13;;;;;;;3.78;2.03;;;;;;;13.24;56.34;102492.91;5053575;28;20051;-74
2022/10/03 01:56:07;;;;;;;8.82;3.50;;;;;;;13.19;56.12;102498.56;5054070;28;20057;-73
2022/10/03 01:58:33;;;;;;;8.70;3.15;;;;;;;13.15;55.97;102496.97;5054077;28;20045;-73
2022/10/03 02:01:06;;;;;;;6.75;3.75;;;;;;;13.14;56.22;102495.22;5053743;28;20041;-73
2022/10/03 02:03:55;;;;;;;6.32;3.20;;;;;;;13.13;56.36;102498.88;5053438;28;20502;-74
2022/10/03 02:06:37;;;;;;;8.68;4.03;;;;;;;13.13;56.39;102498.88;5053868;28;20400;-73
2022/10/03 02:09:27;;;;;;;7.85;3.50;;;;;;;13.13;56.46;102498.00;5035984;28;20044;-73
2022/10/03 02:12:24;;;;;;;8.93;4.30;;;;;;;13.12;56.44;102502.53;5035465;28;20041;-74
2022/10/03 02:15:25;;;;;;;8.27;3.92;;;;;;;13.11;56.55;102500.78;5053904;28;20457;-74
2022/10/03 02:18:01;;;;;;;7.35;3.40;;;;;;;13.11;56.55;102498.09;5044761;28;20045;-73
2022/10/03 02:20:42;;;;;;;10.95;3.58;;;;;;;13.12;56.47;102505.22;5051864;28;20060;-73
2022/10/03 02:23:35;;;;;;;8.60;3.53;;;;;;;13.13;56.40;102506.09;5053418;28;20037;-73
2022/10/03 02:26:48;;;;;;;5.80;3.47;;;;;;;13.13;56.87;102506.97;5052481;28;20103;-73
2022/10/03 02:29:28;;;;;;;8.88;3.80;;;;;;;13.12;56.44;102497.13;5053426;28;20044;-73
2022/10/03 02:32:08;;;;;;;6.40;3.50;;;;;;;13.12;56.51;102507.91;5053313;28;20437;-72
2022/10/03 02:35:04;;;;;;;8.40;3.60;;;;;;;13.11;56.41;102508.88;5052092;28;20079;-71
2022/10/03 02:37:31;;;;;;;9.82;3.92;;;;;;;13.11;56.61;102511.56;5033145;28;20045;-72
2022/10/03 02:40:04;;;;;;;3.85;2.90;;;;;;;13.08;56.54;102517.13;5033250;28;20180;-72
2022/10/03 02:42:52;;;;;;;5.90;2.90;;;;;;;13.03;56.57;102514.69;5033110;28;20045;-72
2022/10/03 02:45:27;;;;;;;9.95;3.20;;;;;;;13.02;56.55;102515.66;5033321;28;20107;-72
2022/10/03 02:47:54;;;;;;;;;;;;;;;13.00;56.70;102508.59;5033909;28;20432;-72
2022/10/03 02:50:58;;;;;;;5.22;3.47;;;;;;;13.03;56.68;102505.72;5033197;28;20000;-72
2022/10/03 02:54:06;;;;;;;7.30;3.60;;;;;;;13.00;56.64;102509.47;5048454;28;20046;-72
2022/10/03 02:56:56;;;;;;;5.88;3.80;;;;;;;12.99;56.79;102518.50;5052793;28;20178;-72
2022/10/03 02:59:40;;;;;;;8.60;3.63;;;;;;;12.99;56.70;102514.94;5052971;28;20052;-73
2022/10/03 03:02:36;;;;;;;6.75;3.72;;;;;;;12.99;56.55;102512.25;5052712;28;20087;-71
2022/10/03 03:05:25;;;;;;;5.72;3.55;;;;;;;12.99;56.79;102512.25;5052876;28;20091;-71
2022/10/03 03:08:17;;;;;;;7.93;3.72;;;;;;;12.96;56.85;102507.88;5051618;28;20045;-73
2022/10/03 03:11:07;;;;;;;11.40;4.05;;;;;;;12.98;56.70;102514.06;5050783;28;20052;-72
2022/10/03 03:13:55;;;;;;;8.00;3.25;;;;;;;12.95;56.63;102513.38;5052555;28;20040;-71
2022/10/03 03:16:32;;;;;;;5.00;2.55;;;;;;;12.93;56.71;102520.66;5052566;28;20095;-71
2022/10/03 03:19:14;;;;;;;5.07;2.60;;;;;;;12.91;56.93;102509.97;5052678;28;20075;-72
2022/10/03 03:21:49;;;;;;;3.67;1.98;;;;;;;12.91;56.77;102506.41;5052416;28;20396;-72
2022/10/03 03:24:35;;;;;;;4.25;2.15;;;;;;;12.89;56.82;102511.88;5051031;28;20091;-72
2022/10/03 03:27:30;;;;;;;3.45;2.08;;;;;;;12.87;56.84;102516.47;5051950;28;20091;-72
2022/10/03 03:30:10;;;;;;;6.28;2.20;;;;;;;12.85;56.83;102522.91;5052340;28;20453;-72
2022/10/03 03:32:55;;;;;;;3.80;1.90;;;;;;;12.82;57.02;102523.06;5052016;28;20098;-72
2022/10/03 03:35:25;;;;;;;3.25;1.85;;;;;;;12.80;57.18;102524.97;5052176;28;20090;-72
2022/10/03 03:38:04;;;;;;;4.05;2.28;;;;;;;12.77;56.85;102533.25;5052028;28;20041;-73
2022/10/03 03:40:55;;;;;;;3.28;2.20;;;;;;;12.73;56.99;102533.41;5052215;28;20053;-72
2022/10/03 03:43:54;;;;;;;5.32;2.80;;;;;;;12.71;57.01;102527.22;5051572;28;20037;-73
2022/10/03 03:46:28;;;;;;;4.13;2.22;;;;;;;12.71;56.96;102521.84;5050641;28;20044;-73
2022/10/03 03:49:28;;;;;;;8.15;3.50;;;;;;;12.69;57.20;102522.88;5050693;28;20044;-72
2022/10/03 03:52:13;;;;;;;4.35;2.05;;;;;;;12.66;56.94;102526.59;5051832;28;20317;-73
2022/10/03 03:54:58;;;;;;;4.32;2.67;;;;;;;12.63;57.22;102521.38;5052060;28;20045;-72
2022/10/03 03:57:45;;;;;;;5.45;2.90;;;;;;;12.63;56.98;102520.47;5050790;28;20174;-72
2022/10/03 04:00:30;;;;;;;3.75;2.53;;;;;;;12.64;57.19;102522.25;5050939;28;20052;-71
2022/10/03 04:03:18;;;;;;;4.47;2.58;;;;;;;12.65;57.18;102532.94;5051656;28;20044;-72
2022/10/03 04:06:02;;;;;;;3.55;2.67;;;;;;;12.64;57.31;102522.25;5050667;28;20386;-71
2022/10/03 04:08:46;;;;;;;8.93;2.60;;;;;;;12.61;57.27;102520.53;5051476;28;20057;-71
2022/10/03 04:11:12;;;;;;;3.45;2.35;;;;;;;12.59;57.00;102527.84;5051514;28;20384;-72
2022/10/03 04:19:54;;;;;;;4.15;2.05;;;;;;;12.48;57.25;102530.22;5051438;28;20119;-72
2022/10/03 04:22:28;;;;;;;3.75;2.50;;;;;;;12.48;56.99;102526.66;5051275;28;20099;-72
2022/10/03 04:25:21;;;;;;;2.80;2.10;;;;;;;12.43;57.21;102535.00;5051128;28;20041;-73
2022/10/03 04:28:25;;;;;;;3.60;2.50;;;;;;;12.44;57.15;102534.03;5051406;28;20053;-71
2022/10/03 04:31:01;;;;;;;5.93;2.65;;;;;;;12.45;56.98;102537.59;5050859;28;20053;-71
2022/10/03 04:33:55;;;;;;;9.02;2.10;;;;;;;12.43;57.22;102537.69;5050584;28;20049;-71
2022/10/03 04:36:30;;;;;;;2.80;1.90;;;;;;;12.41;56.94;102539.59;5051146;28;20491;-71
2022/10/03 04:39:09;;;;;;;;;;;;;;;12.36;57.18;102539.81;5051649;28;20060;-73
2022/10/03 04:41:53;;;;;;;5.20;1.40;;;;;;;12.35;57.18;102535.38;5050958;28;20284;-72
2022/10/03 04:44:50;;;;;;;2.08;1.55;;;;;;;12.33;57.10;102539.09;5051406;28;20536;-73
2022/10/03 04:47:19;;;;;;;2.70;1.58;;;;;;;12.30;56.98;102540.13;5039783;28;20045;-74
2022/10/03 04:49:55;;;;;;;2.75;1.70;;;;;;;12.28;57.24;102541.16;5049113;28;20037;-74
2022/10/03 04:52:50;;;;;;;2.17;1.80;;;;;;;12.26;57.29;102548.47;5039835;28;20541;-73
2022/10/03 04:55:27;;;;;;;12.43;4.40;;;;;;;12.24;57.22;102544.97;5051186;28;20130;-74
2022/10/03 04:58:31;;;;;;;3.97;2.30;;;;;;;12.21;57.32;102553.22;5050936;28;20295;-73
2022/10/03 05:01:05;;;;;;;9.98;3.45;;;;;;;12.20;57.13;102556.84;5050983;28;20045;-73
2022/10/03 05:04:14;;;;;;;6.15;2.63;;;;;;;12.14;57.18;102549.09;5050354;28;20060;-74
2022/10/03 05:07:13;;;;;;;4.60;3.28;;;;;;;12.14;57.45;102549.09;5049601;28;20045;-74
2022/10/03 05:09:58;;;;;;;7.57;4.30;;;;;;;12.12;57.26;102546.47;5049449;28;20510;-72
2022/10/03 05:13:01;;;;;;;11.57;4.35;;;;;;;12.14;57.70;102554.47;5029649;28;20116;-72
2022/10/03 05:16:05;;;;;;;7.10;3.80;;;;;;;12.16;57.43;102553.44;5031053;28;20040;-72
2022/10/03 05:18:42;;;;;;;7.80;4.05;;;;;;;12.20;57.64;102554.16;5030849;28;20034;-73
2022/10/03 05:21:08;;;;;;;7.80;4.32;;;;;;;12.20;57.69;102554.16;5030905;28;20442;-73
2022/10/03 05:24:14;;;;;;;6.70;4.50;;;;;;;12.20;57.75;102559.53;5030510;28;20092;-72
2022/10/03 05:27:38;;;;;;;8.27;3.97;;;;;;;12.18;57.58;102562.31;5046846;28;20461;-72
2022/10/03 05:30:15;;;;;;;7.38;3.53;;;;;;;12.21;57.59;102567.53;5027771;28;20103;-72
2022/10/03 05:32:50;;;;;;;7.30;4.15;;;;;;;12.22;57.77;102565.72;5028107;28;20045;-72
2022/10/03 05:35:44;;;;;;;7.00;3.83;;;;;;;12.22;57.70;102560.34;5044881;28;20107;-72
2022/10/03 05:38:28;;;;;;;8.80;4.22;;;;;;;12.24;57.82;102566.53;5050807;28;20045;-73
2022/10/03 05:41:16;;;;;;;9.30;3.92;;;;;;;12.24;57.49;102564.69;5050270;28;20094;-73
2022/10/03 05:44:04;;;;;;;9.02;4.07;;;;;;;12.25;57.74;102576.34;5050564;28;20051;-73
2022/10/03 05:46:45;;;;;;;5.78;3.42;;;;;;;12.27;57.80;102577.13;5050437;28;20041;-73
2022/10/03 05:49:33;;;;;;;10.38;4.30;;;;;;;12.27;57.77;102582.53;5050404;28;20040;-71
2022/10/03 05:52:03;;;;;;;52.28;7.75;;;;;;;12.28;57.42;102592.34;5050366;28;20053;-73
2022/10/03 05:54:49;;;;;;;7.07;4.53;;;;;;;12.25;57.76;102579.91;5050356;28;20499;-74
2022/10/03 05:57:34;;;;;;;5.13;4.07;;;;;;;12.26;57.51;102589.72;5049123;28;20459;-74
2022/10/03 06:00:18;;;;;;;11.20;3.10;;;;;;;12.25;57.61;102582.59;5050172;28;20056;-73
2022/10/03 06:03:03;;;;;;;3.72;2.72;;;;;;;12.24;57.74;102588.06;5053801;28;20037;-73
2022/10/03 06:06:02;;;;;;;3.90;2.75;;;;;;;12.23;57.55;102591.72;5053929;28;20049;-73
2022/10/03 06:08:50;;;;;;;4.47;2.67;;;;;;;12.24;57.87;102593.44;5053874;28;20056;-73
2022/10/03 06:11:43;;;;;;;2.90;2.28;;;;;;;12.23;57.58;102600.66;5053627;28;20053;-74
2022/10/03 06:14:22;;;;;;;6.07;1.58;;;;;;;12.21;57.77;102599.88;5053656;28;20179;-73
2022/10/03 06:17:33;;;;;;;2.20;1.63;;;;;;;12.21;57.84;102599.88;5052670;28;20041;-73
2022/10/03 06:20:45;;;;;;;4.38;1.83;;;;;;;12.16;57.57;102599.22;5031179;28;20409;-74
2022/10/03 06:23:46;;;;;;;1.90;1.60;;;;;;;12.11;57.67;102601.28;5013664;28;20099;-72
2022/10/03 06:26:28;;;;;;;3.20;2.53;;;;;;;12.09;57.63;102597.78;5031110;28;20051;-73
2022/10/03 06:29:07;;;;;;;5.22;2.90;;;;;;;12.00;57.95;102600.94;5053577;28;20098;-68
2022/10/03 06:32:01;;;;;;;3.63;3.05;;;;;;;11.95;58.12;102595.78;5052903;28;20037;-72
2022/10/03 06:34:47;;;;;;;3.60;3.03;;;;;;;11.93;58.27;102605.75;5033730;28;20037;-71
2022/10/03 06:37:39;;;;;;;;;;;;;;;11.94;58.51;102602.09;5049055;28;20049;-71
2022/10/03 06:40:41;;;;;;;10.55;4.43;;;;;;;12.01;58.10;102602.69;5052879;28;20445;-71
2022/10/03 06:43:32;;;;;;;6.80;4.43;;;;;;;12.01;58.56;102608.06;5052547;28;20102;-71
2022/10/03 06:46:27;;;;;;;9.00;4.47;;;;;;;12.00;58.76;102601.81;5041303;28;20053;-71
2022/10/03 06:49:17;;;;;;;12.05;5.60;;;;;;;12.06;58.76;102606.03;5048670;28;20041;-71
2022/10/03 06:52:03;;;;;;;11.68;6.07;;;;;;;12.13;59.11;102604.75;5048469;28;20053;-71
2022/10/03 06:55:12;;;;;;;8.65;6.60;;;;;;;12.25;59.42;102622.13;5053257;28;20514;-71
2022/10/03 06:57:57;;;;;;;10.73;7.40;;;;;;;12.39;59.09;102616.94;5030886;28;20057;-71
2022/10/03 07:00:33;;;;;;;12.07;7.33;;;;;;;12.53;59.76;102614.41;5048160;28;20041;-72
2022/10/03 07:06:55;;;;;;;12.63;6.68;;;;;;;13.00;60.07;102624.56;5050490;28;20419;-70
2022/10/03 07:09:40;;;;;;;13.17;7.23;;;;;;;13.21;60.38;102622.56;5052509;28;20036;-70
2022/10/03 07:12:38;;;;;;;7.78;5.95;;;;;;;13.43;60.36;102617.78;5050675;28;20099;-71
2022/10/03 07:15:17;;;;;;;8.38;6.05;;;;;;;13.66;60.34;102621.91;5051400;28;20041;-69
2022/10/03 07:18:25;;;;;;;13.73;6.13;;;;;;;13.93;60.22;102628.47;5052386;28;20423;-70
2022/10/03 07:21:23;;;;;;;11.00;6.45;;;;;;;14.26;60.44;102627.50;5045512;28;20061;-69
2022/10/03 07:24:08;;;;;;;9.48;6.07;;;;;;;14.59;60.39;102632.78;5052260;28;20614;-70
2022/10/03 07:26:42;;;;;;;18.63;7.40;;;;;;;14.86;60.02;102627.53;5051217;28;20099;-70
2022/10/03 07:29:27;;;;;;;9.10;5.47;;;;;;;15.11;60.07;102627.81;5052427;28;20322;-70
2022/10/03 07:32:12;;;;;;;9.63;5.65;;;;;;;15.38;59.90;102635.16;5050993;28;20515;-69
2022/10/03 07:35:06;;;;;;;9.27;5.00;;;;;;;15.62;59.46;102628.25;5052599;28;20045;-69
2022/10/03 07:41:20;;;;;;;14.27;5.65;;;;;;;16.15;58.77;102632.03;5052176;28;20082;-70
2022/10/03 07:44:00;;;;;;;10.15;5.80;;;;;;;16.39;58.57;102634.97;5051913;28;20480;-69
2022/10/03 07:46:52;;;;;;;10.57;5.35;;;;;;;16.55;58.23;102635.66;5052121;28;20045;-71
2022/10/03 07:50:02;;;;;;;8.00;4.50;;;;;;;16.66;58.15;102641.25;5050698;28;20329;-70
2022/10/03 07:52:36;;;;;;;10.77;5.40;;;;;;;16.74;57.97;102643.44;5051923;28;20463;-69
2022/10/03 07:55:18;;;;;;;9.02;4.97;;;;;;;16.80;58.24;102640.31;5051813;28;20037;-69
2022/10/03 07:58:06;;;;;;;14.35;5.38;;;;;;;16.81;58.11;102648.34;5050691;28;20205;-71
2022/10/03 08:01:02;;;;;;;9.15;4.80;;;;;;;16.87;58.13;102647.06;5051663;28;20053;-69
2022/10/03 08:04:02;;;;;;;9.50;5.00;;;;;;;16.94;57.93;102648.38;5051690;28;20165;-69
2022/10/03 08:06:43;;;;;;;16.60;4.32;;;;;;;17.04;57.89;102662.16;5050093;28;20052;-68
2022/10/03 08:09:30;;;;;;;8.43;5.07;;;;;;;17.14;57.86;102661.44;5050033;28;20045;-70
2022/10/03 08:12:15;;;;;;;12.10;5.25;;;;;;;17.30;58.21;102663.09;5051085;28;20094;-71
2022/10/03 08:14:51;;;;;;;13.93;5.25;;;;;;;17.42;57.73;102667.66;5051702;28;20491;-71
2022/10/03 08:17:49;;;;;;;10.35;4.68;;;;;;;17.55;57.83;102668.50;5051438;28;20045;-70
2022/10/03 08:20:35;;;;;;;12.55;5.57;;;;;;;17.78;57.72;102667.75;5049726;28;20044;-71
2022/10/03 08:23:40;;;;;;;11.43;5.43;;;;;;;18.02;57.89;102664.25;5050527;28;20045;-70
2022/10/03 08:26:46;;;;;;;10.60;4.93;;;;;;;18.20;57.59;102664.72;5049945;28;20132;-70
2022/10/03 08:29:31;;;;;;;14.65;5.10;;;;;;;18.27;57.30;102661.44;5029140;28;20379;-70
2022/10/03 08:32:23;;;;;;;10.27;4.93;;;;;;;18.30;56.75;102654.91;5049943;28;20107;-70
2022/10/03 08:35:08;;;;;;;9.82;4.50;;;;;;;18.36;57.11;102663.47;5051341;28;20342;-70
2022/10/03 08:38:09;;;;;;;11.45;4.70;;;;;;;18.37;56.91;102648.88;5049260;28;20048;-70
2022/10/03 08:40:52;;;;;;;8.13;4.95;;;;;;;18.48;57.32;102661.66;5050580;28;20394;-71
2022/10/03 08:43:56;;;;;;;9.85;4.32;;;;;;;18.59;57.14;102653.59;5051015;28;20442;-70
2022/10/03 08:46:50;;;;;;;12.13;4.53;;;;;;;18.67;56.75;102655.75;5051122;28;20037;-71
2022/10/03 08:49:50;;;;;;;10.30;4.20;;;;;;;18.78;56.70;102657.66;5050277;28;20037;-71
2022/10/03 08:52:42;;;;;;;9.10;5.03;;;;;;;18.90;56.86;102663.03;5049635;28;20041;-71
2022/10/03 08:55:18;;;;;;;9.60;4.13;;;;;;;19.05;56.62;102655.50;5051129;28;20041;-71
2022/10/03 08:58:10;;;;;;;11.30;5.07;;;;;;;19.12;56.43;102661.34;5050957;28;20033;-71
2022/10/03 09:01:21;;;;;;;10.10;4.55;;;;;;;19.23;56.28;102662.22;5050541;28;20052;-71
2022/10/03 09:03:56;;;;;;;8.82;4.32;;;;;;;19.35;56.26;102661.28;5019475;28;20045;-71
2022/10/03 09:06:58;;;;;;;10.30;4.57;;;;;;;19.46;56.09;102656.84;5050878;28;20041;-70
2022/10/03 09:09:57;;;;;;;8.48;4.82;;;;;;;19.63;56.34;102659.09;5051195;28;20040;-68
2022/10/03 09:12:33;;;;;;;15.30;4.93;;;;;;;19.74;55.91;102663.69;5050643;28;20103;-72
2022/10/03 09:15:13;;;;;;;10.50;5.15;;;;;;;19.88;55.96;102663.44;5050780;28;20060;-72
2022/10/03 09:18:03;;;;;;;9.45;3.75;;;;;;;20.04;55.88;102658.44;5050471;28;20044;-71
2022/10/03 09:20:35;;;;;;;13.20;3.85;;;;;;;20.17;55.60;102651.00;5050642;28;20597;-72
2022/10/03 09:23:33;;;;;;;10.63;3.47;;;;;;;20.21;54.77;102660.69;5050636;28;20103;-72
2022/10/03 09:26:34;;;;;;;8.98;3.33;;;;;;;20.24;54.54;102662.28;5050738;28;20055;-72
2022/10/03 09:29:32;;;;;;;6.60;2.97;;;;;;;20.30;54.40;102662.63;5050251;28;20562;-72
2022/10/03 09:32:17;;;;;;;8.27;3.05;;;;;;;20.36;54.11;102652.19;5050495;28;20049;-72
2022/10/03 09:35:02;;;;;;;8.80;3.35;;;;;;;20.39;54.24;102644.66;5051840;28;20041;-71
2022/10/03 09:37:49;;;;;;;8.57;3.17;;;;;;;20.49;54.02;102652.94;5052574;28;20445;-71
2022/10/03 09:40:55;;;;;;;8.45;4.07;;;;;;;20.58;54.02;102639.38;5054873;28;20376;-71
2022/10/03 09:43:49;;;;;;;10.43;3.53;;;;;;;20.76;54.14;102638.78;5054179;28;20095;-71
2022/10/03 09:46:37;;;;;;;7.57;2.78;;;;;;;20.87;53.43;102636.91;5054264;28;20083;-72
2022/10/03 09:49:22;;;;;;;7.53;2.67;;;;;;;20.96;53.24;102642.56;5053653;28;20045;-69
2022/10/03 09:51:58;;;;;;;8.52;2.60;;;;;;;21.01;53.49;102630.22;5053872;28;20553;-69
2022/10/03 09:54:27;;;;;;;;;;;;;;;21.09;53.45;102635.91;5054800;28;20075;-70
2022/10/03 09:57:13;;;;;;;8.52;2.33;;;;;;;21.23;53.26;102631.97;5053927;28;19920;-70
2022/10/03 09:59:57;;;;;;;7.00;2.90;;;;;;;21.33;52.90;102627.44;5033865;28;20045;-71
2022/10/03 10:02:51;;;;;;;5.70;2.30;;;;;;;21.38;52.37;102618.81;5043463;28;20048;-71
2022/10/03 10:05:48;;;;;;;5.32;2.25;;;;;;;21.40;52.01;102620.41;5054046;28;20064;-70
2022/10/03 10:08:52;;;;;;;5.22;2.08;;;;;;;21.50;52.25;102624.06;5053625;28;20107;-70
2022/10/03 10:11:53;;;;;;;6.25;2.35;;;;;;;21.65;52.03;102624.59;5048562;28;20098;-70
2022/10/03 10:14:40;;;;;;;6.85;2.53;;;;;;;21.77;52.33;102619.88;5053726;28;20045;-70
2022/10/03 10:17:45;;;;;;;5.70;2.92;;;;;;;21.88;51.88;102620.63;5053090;28;20049;-70
2022/10/03 10:20:44;;;;;;;7.05;2.10;;;;;;;21.96;51.53;102617.19;5053302;28;20041;-70
2022/10/03 10:23:23;;;;;;;5.85;2.00;;;;;;;22.02;51.35;102611.16;5051033;28;20075;-70
2022/10/03 10:26:00;;;;;;;5.72;2.25;;;;;;;22.10;51.10;102608.63;5053063;28;20061;-70
2022/10/03 10:28:27;;;;;;;7.13;2.05;;;;;;;22.09;50.57;102603.28;5051979;28;20507;-70
2022/10/03 10:31:31;;;;;;;10.13;2.22;;;;;;;22.09;50.23;102617.81;5045917;28;20064;-70
2022/10/03 10:34:18;;;;;;;5.20;2.60;;;;;;;22.12;50.28;102608.47;5053218;28;20108;-71
2022/10/03 10:37:09;;;;;;;9.63;2.17;;;;;;;22.15;50.15;102610.91;5052534;28;20553;-70
2022/10/03 10:39:51;;;;;;;6.85;2.70;;;;;;;22.20;50.04;102604.00;5052795;28;20518;-70
2022/10/03 10:42:24;;;;;;;11.02;2.53;;;;;;;22.35;50.29;102606.38;5052284;28;20403;-71
2022/10/03 10:45:14;;;;;;;6.03;2.15;;;;;;;22.51;50.19;102604.78;5047067;28;20408;-71
2022/10/03 10:48:02;;;;;;;7.85;2.72;;;;;;;22.71;49.83;102599.28;5032046;28;20046;-70
2022/10/03 10:51:06;;;;;;;10.35;2.72;;;;;;;22.89;49.54;102605.78;5045580;28;20354;-70
2022/10/03 10:54:11;;;;;;;6.97;2.85;;;;;;;23.01;49.22;102610.09;5052210;28;20068;-71
2022/10/03 10:56:56;;;;;;;6.95;2.22;;;;;;;23.05;48.61;102606.06;5052940;28;20044;-70
2022/10/03 10:59:40;;;;;;;6.80;2.53;;;;;;;23.01;48.96;102607.34;5052776;28;20094;-71
2022/10/03 11:02:22;;;;;;;8.17;2.63;;;;;;;23.03;49.13;102602.59;5051244;28;20033;-70
2022/10/03 11:05:28;;;;;;;6.63;2.17;;;;;;;23.01;48.64;102607.34;5052380;28;20106;-70
2022/10/03 11:08:19;;;;;;;9.13;2.80;;;;;;;22.99;48.63;102609.38;5052683;28;20055;-70
2022/10/03 11:11:20;;;;;;;8.90;2.38;;;;;;;22.94;48.49;102610.81;5032096;28;20450;-70
2022/10/03 11:14:16;;;;;;;6.45;2.10;;;;;;;22.89;47.91;102603.03;5031362;28;20046;-73
2022/10/03 11:17:22;;;;;;;6.80;2.58;;;;;;;22.82;47.43;102605.50;5031202;28;20523;-72
2022/10/03 11:20:26;;;;;;;7.20;2.17;;;;;;;22.79;47.27;102604.91;5032436;28;20046;-74
2022/10/03 11:23:07;;;;;;;5.50;2.05;;;;;;;22.80;47.29;102606.66;5050308;28;20053;-72
2022/10/03 11:25:53;;;;;;;6.50;2.13;;;;;;;22.79;47.01;102607.66;5052197;28;20066;-72
2022/10/03 11:28:57;;;;;;;5.22;2.00;;;;;;;22.87;47.03;102602.31;5052304;28;20083;-71
2022/10/03 11:31:45;;;;;;;4.88;2.22;;;;;;;22.98;46.84;102604.91;5051855;28;20048;-73
2022/10/03 11:34:41;;;;;;;5.70;2.70;;;;;;;23.09;46.49;102602.03;5051882;28;20576;-69
2022/10/03 11:37:49;;;;;;;4.90;1.77;;;;;;;23.21;46.56;102608.19;5052241;28;20037;-69
2022/10/03 11:40:38;;;;;;;5.50;2.10;;;;;;;23.28;46.42;102598.34;5048534;28;20103;-69
2022/10/03 11:43:45;;;;;;;5.43;2.33;;;;;;;23.26;46.31;102600.38;5051411;28;20087;-69
2022/10/03 11:46:37;;;;;;;5.75;2.40;;;;;;;23.22;45.88;102596.22;5051536;28;20057;-69
2022/10/03 11:49:37;;;;;;;4.95;2.08;;;;;;;23.13;45.74;102597.09;5051863;28;20491;-70
2022/10/03 11:52:24;;;;;;;9.55;2.70;;;;;;;23.07;45.89;102597.69;5050830;28;20221;-70
2022/10/03 11:55:00;;;;;;;6.72;2.47;;;;;;;23.00;45.53;102593.78;5050736;28;20048;-70
2022/10/03 11:57:30;;;;;;;6.78;1.90;;;;;;;22.96;45.76;102598.69;5051464;28;20494;-70
2022/10/03 12:00:18;;;;;;;5.88;2.10;;;;;;;22.91;45.66;102597.41;5051641;28;20495;-70
2022/10/03 12:03:06;;;;;;;6.50;2.03;;;;;;;22.90;45.74;102593.81;5050656;28;20048;-70
2022/10/03 12:09:27;;;;;;;9.75;2.25;;;;;;;22.85;45.69;102596.13;5050911;28;20053;-72
2022/10/03 12:12:26;;;;;;;5.40;1.90;;;;;;;22.85;45.67;102598.88;5050542;28;20045;-71
2022/10/03 12:15:14;;;;;;;8.02;2.17;;;;;;;22.89;45.83;102600.31;5042703;28;20403;-71
2022/10/03 12:17:49;;;;;;;6.45;1.67;;;;;;;22.90;45.97;102591.06;5051195;28;20037;-72
2022/10/03 12:20:26;;;;;;;6.65;1.92;;;;;;;22.95;45.93;102596.97;5051649;28;20037;-72
2022/10/03 12:23:11;;;;;;;7.28;2.22;;;;;;;23.00;45.86;102591.06;5049103;28;20068;-70
2022/10/03 12:25:42;;;;;;;6.95;1.70;;;;;;;23.02;45.61;102594.50;5051251;28;20119;-70
2022/10/03 12:28:34;;;;;;;4.88;1.45;;;;;;;22.99;45.41;102590.19;5051135;28;20561;-71
2022/10/03 12:31:14;;;;;;;4.65;1.75;;;;;;;22.94;45.14;102591.66;5049658;28;20442;-71
2022/10/03 12:34:11;;;;;;;10.02;1.92;;;;;;;22.90;45.15;102590.22;5049404;28;20073;-71
2022/10/03 12:36:50;;;;;;;6.07;1.60;;;;;;;22.90;45.24;102585.59;5051074;28;20045;-71
2022/10/03 12:39:44;;;;;;;5.25;1.15;;;;;;;22.90;44.75;102584.72;5051218;28;20045;-71
2022/10/03 12:42:29;;;;;;;5.68;1.48;;;;;;;22.93;44.85;102579.81;5050083;28;20040;-71
2022/10/03 12:45:18;;;;;;;3.65;1.20;;;;;;;22.98;44.68;102579.38;5051122;28;20094;-71
2022/10/03 12:47:51;;;;;;;6.07;1.65;;;;;;;23.00;44.35;102577.34;5051097;28;20033;-71
2022/10/03 12:50:42;;;;;;;9.00;1.67;;;;;;;23.05;44.35;102564.97;5050638;28;20076;-72
2022/10/03 12:53:14;;;;;;;5.75;1.35;;;;;;;23.13;44.54;102572.44;5050046;28;20045;-71
2022/10/03 12:55:50;;;;;;;5.20;1.40;;;;;;;23.24;44.63;102576.88;5050924;28;20450;-71
2022/10/03 12:58:35;;;;;;;4.78;1.58;;;;;;;23.33;44.29;102565.88;5050800;28;20487;-71
2022/10/03 13:01:08;;;;;;;7.07;1.42;;;;;;;23.33;44.27;102559.53;5050246;28;20045;-71
2022/10/03 13:03:58;;;;;;;7.18;1.63;;;;;;;23.29;43.71;102560.84;5050384;28;20048;-70
2022/10/03 13:06:41;;;;;;;5.85;1.55;;;;;;;23.30;43.92;102563.44;5049406;28;20044;-69
2022/10/03 13:09:35;;;;;;;5.00;1.50;;;;;;;23.34;44.01;102562.13;5050786;28;20475;-69
2022/10/03 13:12:18;;;;;;;8.38;1.52;;;;;;;23.33;43.30;102567.75;5053244;28;20053;-70
2022/10/03 13:15:17;;;;;;;5.78;1.17;;;;;;;23.23;43.29;102562.31;5053345;28;20526;-69
2022/10/03 13:18:03;;;;;;;5.18;1.90;;;;;;;23.14;43.60;102552.25;5033543;28;20038;-69
2022/10/03 13:20:35;;;;;;;7.90;1.92;;;;;;;23.12;43.63;102554.28;5034749;28;20042;-69